Time;durP1;ratioP1;P1;durP2;ratioP2;P2;SDS_P1;SDS_P2;PMS_P1;PMS_P2;Temp;Humidity;BMP_temperature;BMP_pressure;BME280_temperature;BME280_humidity;BME280_pressure;Samples;Min_cycle;Max_cycle;Signal;HPM_P1;HPM_P2
2024/02/17 00:02:24;;;;;;;30.03;22.33;;;12.10;99.90;;;;;;5033273;28;20429;-70
2024/02/17 00:04:50;;;;;;;26.73;21.20;;;12.10;99.90;;;;;;5035022;28;20429;-68
2024/02/17 00:07:15;;;;;;;26.80;21.53;;;12.10;99.90;;;;;;5034076;28;20182;-68
2024/02/17 00:09:42;;;;;;;29.17;23.57;;;12.00;99.90;;;;;;5035605;28;20186;-68
2024/02/17 00:12:09;;;;;;;28.20;22.27;;;12.00;99.90;;;;;;5034701;28;20197;-70
2024/02/17 00:14:36;;;;;;;28.93;21.60;;;12.00;99.90;;;;;;5034612;28;20420;-68
2024/02/17 00:17:02;;;;;;;29.50;21.80;;;12.00;99.90;;;;;;5034268;28;20509;-69
2024/02/17 00:19:28;;;;;;;28.87;22.10;;;12.00;99.90;;;;;;5035327;28;20451;-71
2024/02/17 00:21:54;;;;;;;27.93;21.50;;;12.00;99.90;;;;;;5033671;28;20435;-68
2024/02/17 00:24:20;;;;;;;31.00;20.80;;;12.00;99.90;;;;;;5035339;28;20421;-68
2024/02/17 00:26:46;;;;;;;26.90;22.10;;;12.00;99.90;;;;;;5034424;28;20187;-68
2024/02/17 00:29:11;;;;;;;25.47;20.87;;;12.00;99.90;;;;;;5034641;28;20233;-66
2024/02/17 00:31:37;;;;;;;27.00;20.90;;;12.00;99.90;;;;;;5033511;28;20543;-67
2024/02/17 00:34:03;;;;;;;28.77;21.07;;;11.90;99.90;;;;;;5034408;28;20881;-69
2024/02/17 00:36:28;;;;;;;28.20;21.17;;;11.90;99.90;;;;;;5033780;28;20201;-69
2024/02/17 00:38:54;;;;;;;28.27;22.53;;;11.90;99.90;;;;;;5033720;28;20593;-68
2024/02/17 00:41:21;;;;;;;28.83;22.90;;;11.90;99.90;;;;;;5034297;28;20207;-67
2024/02/17 00:43:46;;;;;;;27.33;22.00;;;11.90;99.90;;;;;;5034873;28;20478;-69
2024/02/17 00:46:12;;;;;;;29.77;22.60;;;11.90;99.90;;;;;;5033914;28;20440;-69
2024/02/17 00:48:38;;;;;;;32.10;23.10;;;11.90;99.90;;;;;;5034849;28;20232;-66
2024/02/17 00:51:03;;;;;;;30.37;21.80;;;11.90;99.90;;;;;;5033574;28;20694;-71
2024/02/17 00:53:29;;;;;;;28.93;22.70;;;11.90;99.90;;;;;;5033824;28;20182;-68
2024/02/17 00:55:55;;;;;;;27.50;20.03;;;11.90;99.90;;;;;;5034254;28;20213;-68
2024/02/17 00:58:21;;;;;;;33.50;23.20;;;11.90;99.90;;;;;;5030932;28;20194;-69
2024/02/17 01:00:47;;;;;;;32.97;21.97;;;11.90;99.90;;;;;;5032175;28;20264;-69
2024/02/17 01:03:13;;;;;;;30.77;20.70;;;11.90;99.90;;;;;;5034045;28;20487;-68
2024/02/17 01:05:39;;;;;;;30.13;21.10;;;11.90;99.90;;;;;;5033554;28;20178;-69
2024/02/17 01:08:09;;;;;;;27.00;21.43;;;11.90;99.90;;;;;;5032500;28;20471;-69
2024/02/17 01:10:35;;;;;;;28.87;20.23;;;11.80;99.90;;;;;;5032864;28;20448;-68
2024/02/17 01:13:01;;;;;;;28.47;20.23;;;11.80;99.90;;;;;;5033538;28;20425;-68
2024/02/17 01:15:27;;;;;;;29.10;21.17;;;11.80;99.90;;;;;;5034024;28;20928;-64
2024/02/17 01:17:53;;;;;;;26.07;19.67;;;11.80;99.90;;;;;;5033061;28;20420;-67
2024/02/17 01:20:18;;;;;;;30.10;21.03;;;11.80;99.90;;;;;;5033314;28;20220;-67
2024/02/17 01:22:44;;;;;;;30.00;19.50;;;11.70;99.90;;;;;;5033609;28;20216;-70
2024/02/17 01:25:10;;;;;;;31.17;20.50;;;11.80;99.90;;;;;;5032457;28;20193;-70
2024/02/17 01:27:36;;;;;;;30.50;20.27;;;11.70;99.90;;;;;;5033679;28;20201;-69
2024/02/17 01:30:02;;;;;;;27.87;19.43;;;11.70;99.90;;;;;;5031519;28;20183;-71
2024/02/17 01:32:27;;;;;;;25.97;18.33;;;11.70;99.90;;;;;;5032210;28;20891;-67
2024/02/17 01:34:53;;;;;;;28.07;19.60;;;11.70;99.90;;;;;;5033087;28;20202;-67
2024/02/17 01:37:19;;;;;;;29.93;19.80;;;11.60;99.90;;;;;;5032484;28;20182;-65
2024/02/17 01:39:44;;;;;;;29.97;19.60;;;11.60;99.90;;;;;;5032848;28;20190;-68
2024/02/17 01:42:11;;;;;;;27.83;18.50;;;11.60;99.90;;;;;;5031833;28;20215;-71
2024/02/17 01:44:37;;;;;;;25.50;18.27;;;11.60;99.90;;;;;;5033312;28;20537;-69
2024/02/17 01:47:04;;;;;;;27.03;17.70;;;11.60;99.90;;;;;;5030708;28;20540;-70
2024/02/17 01:49:30;;;;;;;24.63;17.97;;;11.60;99.90;;;;;;5033813;28;20829;-68
2024/02/17 01:52:00;;;;;;;24.40;18.20;;;11.60;99.90;;;;;;5032572;28;20536;-69
2024/02/17 01:54:28;;;;;;;30.77;17.87;;;11.60;99.90;;;;;;5032486;28;20461;-70
2024/02/17 01:56:55;;;;;;;25.13;16.73;;;11.50;99.90;;;;;;5032638;28;20441;-67
2024/02/17 01:59:21;;;;;;;23.07;17.70;;;11.50;99.90;;;;;;5031840;28;20425;-67
2024/02/17 02:01:49;;;;;;;24.23;16.93;;;11.50;99.90;;;;;;5032173;28;20529;-67
2024/02/17 02:04:15;;;;;;;23.87;17.37;;;11.50;99.90;;;;;;5014674;28;20201;-68
2024/02/17 02:06:41;;;;;;;29.10;18.50;;;11.50;99.90;;;;;;5032438;28;21118;-68
2024/02/17 02:09:07;;;;;;;21.93;16.60;;;11.50;99.90;;;;;;5032174;28;20287;-67
2024/02/17 02:11:33;;;;;;;25.17;17.13;;;11.50;99.90;;;;;;5032526;28;20186;-71
2024/02/17 02:14:15;;;;;;;29.60;18.60;;;11.50;99.90;;;;;;5032717;28;20934;-68
2024/02/17 02:16:41;;;;;;;22.10;16.90;;;11.50;99.90;;;;;;5031326;28;20429;-67
2024/02/17 02:19:07;;;;;;;28.87;18.40;;;11.40;99.90;;;;;;5031923;28;21239;-68
2024/02/17 02:21:37;;;;;;;28.70;19.00;;;11.40;99.90;;;;;;5032011;28;20475;-67
2024/02/17 02:24:04;;;;;;;25.63;18.40;;;11.40;99.90;;;;;;5031213;28;20432;-67
2024/02/17 02:26:30;;;;;;;32.67;19.07;;;11.40;99.90;;;;;;5031356;28;20516;-69
2024/02/17 02:28:57;;;;;;;28.23;19.00;;;11.40;99.90;;;;;;5031991;28;20511;-69
2024/02/17 02:31:23;;;;;;;26.23;19.90;;;11.40;99.90;;;;;;5030176;28;20441;-66
2024/02/17 02:33:51;;;;;;;33.63;18.43;;;11.40;99.90;;;;;;5032744;28;20432;-70
2024/02/17 02:36:17;;;;;;;29.43;19.47;;;11.40;99.90;;;;;;5028685;28;20463;-67
2024/02/17 02:38:43;;;;;;;24.77;18.10;;;11.40;99.90;;;;;;5032394;28;20428;-67
2024/02/17 02:41:10;;;;;;;25.27;17.87;;;11.40;99.90;;;;;;5029553;28;20434;-71
2024/02/17 02:43:36;;;;;;;27.93;18.50;;;11.40;99.90;;;;;;5031495;28;20486;-67
2024/02/17 02:46:02;;;;;;;25.53;18.60;;;11.40;99.90;;;;;;5030759;28;20448;-67
2024/02/17 02:48:28;;;;;;;32.90;19.40;;;11.40;99.90;;;;;;5030353;28;20962;-68
2024/02/17 02:50:54;;;;;;;27.57;17.83;;;11.30;99.90;;;;;;5030708;28;20556;-68
2024/02/17 02:53:20;;;;;;;23.53;18.50;;;11.30;99.90;;;;;;5030600;28;20182;-66
2024/02/17 02:55:46;;;;;;;30.10;18.83;;;11.30;99.90;;;;;;5029935;28;20188;-68
2024/02/17 02:58:12;;;;;;;28.00;18.93;;;11.30;99.90;;;;;;5030025;28;20428;-68
2024/02/17 03:00:37;;;;;;;25.40;18.50;;;11.30;99.90;;;;;;5029973;28;20421;-68
2024/02/17 03:03:03;;;;;;;23.87;18.50;;;11.30;99.90;;;;;;5030968;28;20232;-65
2024/02/17 03:05:30;;;;;;;27.37;18.37;;;11.30;99.90;;;;;;5029738;28;20186;-68
2024/02/17 03:07:56;;;;;;;27.80;18.30;;;11.30;99.90;;;;;;5030172;28;20218;-67
2024/02/17 03:10:21;;;;;;;29.73;18.17;;;11.30;99.90;;;;;;5029507;28;20424;-71
2024/02/17 03:12:47;;;;;;;29.67;19.67;;;11.30;99.90;;;;;;5031165;28;20181;-67
2024/02/17 03:15:13;;;;;;;30.30;18.90;;;11.30;99.90;;;;;;5030111;28;20269;-71
2024/02/17 03:17:39;;;;;;;29.17;19.00;;;11.30;99.90;;;;;;5029817;28;20209;-66
2024/02/17 03:20:05;;;;;;;30.27;19.07;;;11.30;99.90;;;;;;5031054;28;20244;-71
2024/02/17 03:22:34;;;;;;;30.60;20.20;;;11.30;99.90;;;;;;5029655;28;20944;-69
2024/02/17 03:25:00;;;;;;;29.50;20.27;;;11.30;99.90;;;;;;5030671;28;20431;-69
2024/02/17 03:27:27;;;;;;;28.13;20.27;;;11.30;99.90;;;;;;5028183;28;20821;-67
2024/02/17 03:29:53;;;;;;;27.93;19.00;;;11.20;99.90;;;;;;5028008;28;20486;-68
2024/02/17 03:32:19;;;;;;;31.97;18.70;;;11.20;99.90;;;;;;5027944;28;20456;-72
2024/02/17 03:34:45;;;;;;;25.97;21.03;;;11.20;99.90;;;;;;5029681;28;20875;-69
2024/02/17 03:37:10;;;;;;;28.57;18.93;;;11.20;99.90;;;;;;5029511;28;20446;-67
2024/02/17 03:39:37;;;;;;;27.13;18.90;;;11.20;99.90;;;;;;5028491;28;20271;-69
2024/02/17 03:42:03;;;;;;;29.20;20.20;;;11.30;99.90;;;;;;5029341;28;20265;-67
2024/02/17 03:44:29;;;;;;;26.90;19.67;;;11.20;99.90;;;;;;5029109;28;20441;-69
2024/02/17 03:46:55;;;;;;;25.97;17.77;;;11.20;99.90;;;;;;4990368;28;1121766;-67
2024/02/17 03:49:21;;;;;;;29.50;19.83;;;11.20;99.90;;;;;;5030517;28;20471;-69
2024/02/17 03:51:47;;;;;;;31.67;21.50;;;11.20;99.90;;;;;;5029177;28;20189;-66
2024/02/17 03:54:13;;;;;;;26.60;20.53;;;11.30;99.90;;;;;;5031220;28;20213;-67
2024/02/17 03:56:39;;;;;;;27.90;20.83;;;11.20;99.90;;;;;;5029002;28;20444;-70
2024/02/17 03:59:05;;;;;;;29.10;19.73;;;11.20;99.90;;;;;;5031264;28;20499;-65
2024/02/17 04:01:37;;;;;;;28.87;20.00;;;11.20;99.90;;;;;;5029258;28;20273;-69
2024/02/17 04:04:04;;;;;;;32.03;19.93;;;11.20;99.90;;;;;;5031065;28;20179;-66
2024/02/17 04:06:33;;;;;;;29.43;20.03;;;11.20;99.90;;;;;;5029294;28;20552;-66
2024/02/17 04:08:59;;;;;;;29.63;20.80;;;11.20;99.90;;;;;;5030388;28;20463;-68
2024/02/17 04:11:28;;;;;;;28.10;19.53;;;11.20;99.90;;;;;;5029354;28;20420;-71
2024/02/17 04:13:56;;;;;;;27.60;19.87;;;11.20;99.90;;;;;;5030636;28;20424;-69
2024/02/17 04:16:22;;;;;;;30.07;20.50;;;11.20;99.90;;;;;;5029847;28;20463;-66
2024/02/17 04:18:48;;;;;;;27.53;19.83;;;11.20;99.90;;;;;;5028480;28;20470;-71
2024/02/17 04:21:14;;;;;;;24.37;19.20;;;11.20;99.90;;;;;;5030016;28;20796;-67
2024/02/17 04:23:41;;;;;;;24.90;18.80;;;11.20;99.90;;;;;;5029786;28;20425;-68
2024/02/17 04:26:09;;;;;;;30.60;20.50;;;11.20;99.90;;;;;;5030159;28;20517;-70
2024/02/17 04:28:36;;;;;;;26.87;19.80;;;11.20;99.90;;;;;;5029580;28;20475;-65
2024/02/17 04:31:02;;;;;;;29.00;20.73;;;11.20;99.90;;;;;;5028043;28;20421;-68
2024/02/17 04:33:28;;;;;;;27.37;21.17;;;11.20;99.90;;;;;;5029831;28;20434;-67
2024/02/17 04:35:54;;;;;;;32.40;20.37;;;11.20;99.90;;;;;;5030150;28;20428;-67
2024/02/17 04:38:20;;;;;;;29.53;21.40;;;11.20;99.90;;;;;;5030212;28;20698;-69
2024/02/17 04:40:46;;;;;;;31.50;20.50;;;11.20;99.90;;;;;;5029262;28;20190;-70
2024/02/17 04:43:12;;;;;;;27.13;20.90;;;11.20;99.90;;;;;;5030292;28;21056;-68
2024/02/17 04:45:38;;;;;;;32.23;19.83;;;11.20;99.90;;;;;;5028884;28;20178;-70
2024/02/17 04:48:04;;;;;;;30.20;21.40;;;11.20;99.90;;;;;;5032750;28;20473;-67
2024/02/17 04:50:30;;;;;;;28.53;20.03;;;11.20;99.90;;;;;;5032823;28;20436;-67
2024/02/17 04:52:56;;;;;;;25.40;19.80;;;11.20;99.90;;;;;;5033472;28;20425;-67
2024/02/17 04:55:23;;;;;;;28.87;21.17;;;11.20;99.90;;;;;;5033583;28;20482;-68
2024/02/17 04:57:50;;;;;;;31.07;21.40;;;11.20;99.90;;;;;;5031395;28;20185;-68
2024/02/17 05:00:16;;;;;;;31.07;22.47;;;11.20;99.90;;;;;;5033623;28;20459;-67
2024/02/17 05:02:41;;;;;;;25.40;19.43;;;11.20;99.90;;;;;;5033219;28;20946;-67
2024/02/17 05:05:07;;;;;;;31.73;22.03;;;11.20;99.90;;;;;;5032473;28;20427;-64
2024/02/17 05:07:33;;;;;;;27.60;21.10;;;11.20;99.90;;;;;;5032749;28;20179;-68
2024/02/17 05:09:59;;;;;;;31.93;21.60;;;11.20;99.90;;;;;;5033155;28;20899;-66
2024/02/17 05:12:25;;;;;;;27.53;21.43;;;11.20;99.90;;;;;;5031298;28;20201;-64
2024/02/17 05:14:50;;;;;;;29.70;21.30;;;11.20;99.90;;;;;;5032469;28;20240;-69
2024/02/17 05:17:16;;;;;;;29.30;21.63;;;11.20;99.90;;;;;;5032182;28;20232;-66
2024/02/17 05:19:42;;;;;;;29.17;21.33;;;11.10;99.90;;;;;;5033057;28;20309;-68
2024/02/17 05:22:07;;;;;;;33.73;21.73;;;11.20;99.90;;;;;;5031963;28;20561;-67
2024/02/17 05:24:33;;;;;;;30.77;22.30;;;11.20;99.90;;;;;;5033085;28;20187;-66
2024/02/17 05:26:59;;;;;;;29.17;21.40;;;11.20;99.90;;;;;;5031940;28;20197;-69
2024/02/17 05:29:25;;;;;;;33.63;24.20;;;11.20;99.90;;;;;;5032729;28;20471;-67
2024/02/17 05:31:51;;;;;;;32.07;22.27;;;11.20;99.90;;;;;;5030877;28;20573;-67
2024/02/17 05:34:19;;;;;;;30.77;23.73;;;11.20;99.90;;;;;;5032353;28;20265;-67
2024/02/17 05:36:45;;;;;;;30.53;22.63;;;11.20;99.90;;;;;;5031411;28;20244;-67
2024/02/17 05:39:11;;;;;;;30.40;22.43;;;11.20;99.90;;;;;;5032700;28;20426;-65
2024/02/17 05:41:37;;;;;;;29.20;22.30;;;11.20;99.90;;;;;;5031967;28;20421;-65
2024/02/17 05:44:03;;;;;;;32.33;22.57;;;11.20;99.90;;;;;;5031898;28;20433;-66
2024/02/17 05:46:28;;;;;;;30.20;23.67;;;11.20;99.90;;;;;;5028857;28;20202;-67
2024/02/17 05:48:54;;;;;;;31.10;22.43;;;11.20;99.90;;;;;;5031555;28;21183;-66
2024/02/17 05:51:20;;;;;;;31.17;22.40;;;11.20;99.90;;;;;;5031715;28;20217;-66
2024/02/17 05:53:46;;;;;;;27.03;21.97;;;11.20;99.90;;;;;;5030617;28;20186;-67
2024/02/17 05:56:11;;;;;;;33.60;22.60;;;11.20;99.90;;;;;;5031776;28;20182;-70
2024/02/17 05:58:37;;;;;;;30.63;22.63;;;11.20;99.90;;;;;;5029415;28;20182;-65
2024/02/17 06:01:03;;;;;;;37.57;24.07;;;11.20;99.90;;;;;;5030314;28;20706;-68
2024/02/17 06:03:31;;;;;;;31.53;21.40;;;11.20;99.90;;;;;;5032093;28;20198;-66
2024/02/17 06:05:57;;;;;;;30.47;21.90;;;11.20;99.90;;;;;;5031543;28;20480;-67
2024/02/17 06:08:23;;;;;;;33.43;21.73;;;11.20;99.90;;;;;;5030600;28;20555;-67
2024/02/17 06:10:49;;;;;;;27.20;22.07;;;11.20;99.90;;;;;;5030882;28;20186;-66
2024/02/17 06:13:14;;;;;;;28.73;21.70;;;11.20;99.90;;;;;;5032103;28;20185;-65
2024/02/17 06:15:43;;;;;;;30.00;21.30;;;11.20;99.90;;;;;;5031267;28;20835;-66
2024/02/17 06:23:38;;;;;;;26.00;21.30;;;11.20;99.90;;;;;;5032178;28;20423;-69
2024/02/17 06:26:04;;;;;;;30.67;22.70;;;11.20;99.90;;;;;;5029484;28;20923;-68
2024/02/17 06:28:29;;;;;;;32.47;22.10;;;11.20;99.90;;;;;;5031290;28;20224;-67
2024/02/17 06:30:55;;;;;;;27.93;21.80;;;11.20;99.90;;;;;;5028343;28;20262;-65
2024/02/17 06:33:21;;;;;;;33.80;22.10;;;11.20;99.90;;;;;;5030999;28;20190;-66
2024/02/17 06:35:47;;;;;;;30.50;22.20;;;11.20;99.90;;;;;;5030845;28;20178;-67
2024/02/17 06:38:15;;;;;;;29.73;21.47;;;11.20;99.90;;;;;;5030433;28;20209;-68
2024/02/17 06:40:41;;;;;;;27.57;22.83;;;11.20;99.90;;;;;;5031056;28;21630;-67
2024/02/17 06:43:07;;;;;;;29.30;22.60;;;11.20;99.90;;;;;;5030339;28;20794;-64
2024/02/17 06:45:34;;;;;;;33.83;22.73;;;11.20;99.90;;;;;;5030375;28;20440;-67
2024/02/17 06:48:00;;;;;;;34.23;21.77;;;11.20;99.90;;;;;;5029263;28;20259;-68
2024/02/17 06:50:26;;;;;;;30.00;22.63;;;11.20;99.90;;;;;;5062798;28;20433;-65
2024/02/17 06:52:52;;;;;;;27.03;20.70;;;11.20;99.90;;;;;;5031398;28;20465;-67
2024/02/17 06:55:17;;;;;;;30.90;21.70;;;11.20;99.90;;;;;;5027524;28;21102;-65
2024/02/17 06:57:43;;;;;;;33.13;22.50;;;11.20;99.90;;;;;;5029311;28;20532;-68
2024/02/17 07:00:10;;;;;;;33.50;22.20;;;11.20;99.90;;;;;;5030964;28;20844;-64
2024/02/17 07:02:36;;;;;;;29.47;21.90;;;11.20;99.90;;;;;;5031270;28;20213;-68
2024/02/17 07:05:02;;;;;;;31.93;22.57;;;11.20;99.90;;;;;;5029933;28;20485;-65
2024/02/17 07:07:28;;;;;;;29.33;21.53;;;11.20;99.90;;;;;;5029426;28;20194;-65
2024/02/17 07:09:56;;;;;;;27.20;21.60;;;11.20;99.90;;;;;;5030500;28;20444;-67
2024/02/17 07:12:23;;;;;;;32.10;23.17;;;11.20;99.90;;;;;;5030879;28;20433;-68
2024/02/17 07:14:50;;;;;;;31.37;22.23;;;11.20;99.90;;;;;;5030782;28;20919;-66
2024/02/17 07:17:15;;;;;;;32.50;22.57;;;11.20;99.90;;;;;;5029637;28;21008;-69
2024/02/17 07:19:41;;;;;;;31.83;22.27;;;11.20;99.90;;;;;;5030761;28;20527;-66
2024/02/17 07:22:08;;;;;;;33.93;24.00;;;11.20;99.90;;;;;;5030327;28;20193;-67
2024/02/17 07:24:34;;;;;;;31.53;22.20;;;11.20;99.90;;;;;;5029854;28;20749;-70
2024/02/17 07:27:00;;;;;;;30.47;21.10;;;11.20;99.90;;;;;;5030270;28;20425;-67
2024/02/17 07:29:25;;;;;;;29.03;21.13;;;11.20;99.90;;;;;;5030872;28;20209;-69
2024/02/17 07:31:51;;;;;;;28.70;23.37;;;11.20;99.90;;;;;;5029609;28;20265;-67
2024/02/17 07:34:17;;;;;;;30.07;22.63;;;11.20;99.90;;;;;;5030636;28;20700;-69
2024/02/17 07:36:43;;;;;;;31.33;23.07;;;11.30;99.90;;;;;;5029995;28;20189;-66
2024/02/17 07:39:08;;;;;;;30.70;22.40;;;11.30;99.90;;;;;;5029278;28;21363;-68
2024/02/17 07:41:34;;;;;;;29.97;22.60;;;11.30;99.90;;;;;;5028664;28;20196;-67
2024/02/17 07:44:00;;;;;;;30.10;21.63;;;11.30;99.90;;;;;;5030315;28;20225;-66
2024/02/17 07:46:26;;;;;;;35.47;23.50;;;11.20;99.90;;;;;;5030274;28;20959;-67
2024/02/17 07:48:52;;;;;;;29.07;22.70;;;11.20;99.90;;;;;;5029542;28;20330;-69
2024/02/17 07:51:17;;;;;;;30.47;21.67;;;11.30;99.90;;;;;;5030127;28;20185;-70
2024/02/17 07:53:43;;;;;;;27.93;21.07;;;11.30;99.90;;;;;;5030687;28;20178;-69
2024/02/17 07:56:10;;;;;;;35.73;21.63;;;11.30;99.90;;;;;;5029083;28;20433;-69
2024/02/17 07:58:36;;;;;;;32.07;20.90;;;11.30;99.90;;;;;;5031098;28;20181;-69
2024/02/17 08:01:02;;;;;;;25.77;20.50;;;11.30;99.90;;;;;;5029232;28;20429;-68
2024/02/17 08:03:28;;;;;;;38.67;22.40;;;11.30;99.90;;;;;;5029817;28;20783;-66
2024/02/17 08:05:54;;;;;;;27.37;21.60;;;11.30;99.90;;;;;;5030258;28;20532;-67
2024/02/17 08:08:21;;;;;;;28.17;22.80;;;11.30;99.90;;;;;;5029311;28;20214;-67
2024/02/17 08:10:47;;;;;;;30.60;21.83;;;11.30;99.90;;;;;;5029383;28;20440;-67
2024/02/17 08:13:13;;;;;;;35.13;21.80;;;11.30;99.90;;;;;;5029350;28;20429;-67
2024/02/17 08:15:39;;;;;;;27.93;21.17;;;11.30;99.90;;;;;;5031142;28;20435;-68
2024/02/17 08:18:08;;;;;;;29.90;22.40;;;11.30;99.90;;;;;;5027711;28;20424;-69
2024/02/17 08:20:34;;;;;;;27.63;22.20;;;11.30;99.90;;;;;;5029170;28;21032;-65
2024/02/17 08:23:00;;;;;;;28.80;22.23;;;11.30;99.90;;;;;;5033268;28;20441;-68
2024/02/17 08:25:26;;;;;;;25.93;20.30;;;11.30;99.90;;;;;;5032813;28;20586;-67
2024/02/17 08:27:52;;;;;;;29.70;21.20;;;11.30;99.90;;;;;;5032377;28;20770;-67
2024/02/17 08:30:18;;;;;;;29.00;20.67;;;11.30;99.90;;;;;;5029323;28;20501;-69
2024/02/17 08:32:44;;;;;;;30.67;22.10;;;11.30;99.90;;;;;;5032661;28;20429;-67
2024/02/17 08:35:10;;;;;;;29.47;19.67;;;11.30;99.90;;;;;;5030043;28;20439;-64
2024/02/17 08:37:36;;;;;;;29.83;21.70;;;11.30;99.90;;;;;;5032731;28;20270;-67
2024/02/17 08:40:04;;;;;;;27.20;22.27;;;11.30;99.90;;;;;;5030961;28;20527;-66
2024/02/17 08:42:29;;;;;;;31.07;22.43;;;11.40;99.90;;;;;;5031750;28;20444;-65
2024/02/17 08:44:55;;;;;;;30.37;22.27;;;11.40;99.90;;;;;;5031692;28;20428;-70
2024/02/17 08:47:22;;;;;;;34.17;22.93;;;11.40;99.90;;;;;;5029475;28;20865;-66
2024/02/17 08:49:48;;;;;;;32.90;22.33;;;11.40;99.90;;;;;;5026450;28;20221;-68
2024/02/17 08:52:14;;;;;;;31.67;23.00;;;11.40;99.90;;;;;;5031377;28;20767;-68
2024/02/17 08:54:40;;;;;;;31.23;22.63;;;11.40;99.90;;;;;;5031924;28;20499;-69
2024/02/17 08:57:06;;;;;;;32.77;23.60;;;11.40;99.90;;;;;;5032434;28;20934;-67
2024/02/17 08:59:33;;;;;;;32.63;24.00;;;11.40;99.90;;;;;;5033239;28;20186;-69
2024/02/17 09:01:59;;;;;;;39.63;24.20;;;11.40;99.90;;;;;;5033614;28;20711;-66
2024/02/17 09:04:25;;;;;;;35.83;24.13;;;11.40;99.90;;;;;;5030566;28;20479;-65
2024/02/17 09:06:52;;;;;;;37.33;25.43;;;11.40;99.90;;;;;;5029953;28;20452;-70
2024/02/17 09:09:18;;;;;;;33.93;24.33;;;11.40;99.90;;;;;;5030183;28;20556;-71
2024/02/17 09:11:45;;;;;;;33.07;24.47;;;11.40;99.90;;;;;;5031055;28;20425;-72
2024/02/17 09:14:11;;;;;;;35.77;26.57;;;11.40;99.90;;;;;;5030359;28;20447;-70
2024/02/17 09:16:36;;;;;;;34.57;25.07;;;11.40;99.90;;;;;;5030816;28;20428;-67
2024/02/17 09:19:02;;;;;;;41.43;27.47;;;11.50;99.90;;;;;;5031373;28;20467;-69
2024/02/17 09:21:28;;;;;;;34.27;26.87;;;11.40;99.90;;;;;;5028777;28;20189;-68
2024/02/17 09:23:55;;;;;;;35.90;26.80;;;11.50;99.90;;;;;;5032292;28;20179;-69
2024/02/17 09:26:21;;;;;;;39.23;28.23;;;11.50;99.90;;;;;;5029817;28;21354;-68
2024/02/17 09:28:47;;;;;;;38.90;26.93;;;11.50;99.90;;;;;;5033254;28;20529;-71
2024/02/17 09:31:12;;;;;;;40.50;27.83;;;11.50;99.90;;;;;;5031541;28;20441;-71
2024/02/17 09:33:38;;;;;;;41.00;28.50;;;11.50;99.90;;;;;;5032567;28;20194;-65
2024/02/17 09:36:06;;;;;;;40.03;26.67;;;11.50;99.90;;;;;;5032803;28;20652;-72
2024/02/17 09:38:31;;;;;;;50.60;27.37;;;11.50;99.90;;;;;;5032166;28;20953;-65
2024/02/17 09:40:57;;;;;;;39.57;26.80;;;11.50;99.90;;;;;;5031898;28;20437;-69
2024/02/17 09:43:25;;;;;;;43.40;27.97;;;11.50;99.90;;;;;;5033202;28;20240;-69
2024/02/17 09:45:51;;;;;;;44.10;28.60;;;11.60;99.90;;;;;;5032270;28;20653;-67
2024/02/17 09:48:17;;;;;;;42.50;29.37;;;11.50;99.90;;;;;;5032163;28;20522;-67
2024/02/17 09:50:46;;;;;;;43.30;29.47;;;11.60;99.90;;;;;;5032141;28;20465;-69
2024/02/17 09:53:13;;;;;;;46.07;31.40;;;11.60;99.90;;;;;;5032808;28;20426;-65
2024/02/17 09:55:38;;;;;;;42.00;29.10;;;11.60;99.90;;;;;;5031721;28;20477;-66
2024/02/17 09:58:04;;;;;;;41.10;30.33;;;11.60;99.90;;;;;;5032522;28;20943;-69
2024/02/17 10:00:30;;;;;;;43.03;29.30;;;11.50;99.90;;;;;;5032336;28;20193;-68
2024/02/17 10:02:59;;;;;;;49.03;29.67;;;11.50;99.90;;;;;;5031897;28;20312;-65
2024/02/17 10:05:27;;;;;;;45.27;30.87;;;11.50;99.90;;;;;;5030650;28;20479;-64
2024/02/17 10:07:54;;;;;;;48.63;29.70;;;11.50;99.90;;;;;;5031572;28;20535;-68
2024/02/17 10:10:21;;;;;;;46.20;30.67;;;11.50;99.90;;;;;;5031402;28;20429;-66
2024/02/17 10:12:56;;;;;;;47.17;30.57;;;11.60;99.90;;;;;;5031601;28;20930;-71
2024/02/17 10:15:24;;;;;;;42.40;30.17;;;11.50;99.90;;;;;;5031512;28;20946;-69
2024/02/17 10:17:53;;;;;;;42.73;30.50;;;11.60;99.90;;;;;;5032503;28;20451;-72
2024/02/17 10:20:18;;;;;;;52.57;31.87;;;11.60;99.90;;;;;;5032077;28;20519;-70
2024/02/17 10:22:45;;;;;;;50.73;32.50;;;11.60;99.90;;;;;;5031898;28;20557;-67
2024/02/17 10:25:12;;;;;;;48.73;33.23;;;11.60;99.90;;;;;;5031835;28;20433;-68
2024/02/17 10:27:39;;;;;;;42.53;29.90;;;11.60;99.90;;;;;;5030983;28;20446;-67
2024/02/17 10:30:16;;;;;;;45.43;31.83;;;11.70;99.90;;;;;;5032111;28;20433;-66
2024/02/17 10:32:42;;;;;;;49.87;31.70;;;11.70;99.90;;;;;;5030796;28;20855;-65
2024/02/17 10:35:10;;;;;;;46.87;31.63;;;11.70;99.90;;;;;;5031834;28;20428;-68
2024/02/17 10:37:39;;;;;;;51.17;33.83;;;11.70;99.90;;;;;;5030577;28;20428;-70
2024/02/17 10:40:10;;;;;;;53.47;33.50;;;11.70;99.90;;;;;;5031816;28;20437;-66
2024/02/17 10:42:36;;;;;;;43.03;31.27;;;11.70;99.90;;;;;;5030537;28;20923;-66
2024/02/17 10:45:03;;;;;;;52.17;32.17;;;11.70;99.90;;;;;;5030609;28;20441;-68
2024/02/17 10:47:35;;;;;;;47.93;32.57;;;11.70;99.90;;;;;;5031037;28;20456;-70
2024/02/17 10:50:09;;;;;;;50.27;29.47;;;11.70;99.90;;;;;;5032205;28;20445;-70
2024/02/17 10:53:06;;;;;;;44.53;31.30;;;11.70;99.90;;;;;;5030799;28;20503;-67
2024/02/17 10:55:36;;;;;;;48.50;33.30;;;11.70;99.90;;;;;;5030223;28;20429;-66
2024/02/17 10:58:14;;;;;;;49.00;31.90;;;11.70;99.90;;;;;;5014848;28;20439;-71
2024/02/17 11:00:45;;;;;;;49.53;33.20;;;11.70;99.90;;;;;;5030754;28;20522;-68
2024/02/17 11:03:14;;;;;;;47.07;33.90;;;11.70;99.90;;;;;;5032335;28;20831;-69
2024/02/17 11:05:44;;;;;;;45.90;33.13;;;11.80;99.90;;;;;;5014572;28;20428;-70
2024/02/17 11:08:10;;;;;;;46.27;33.27;;;11.80;99.90;;;;;;5031074;28;21178;-71
2024/02/17 11:10:36;;;;;;;53.23;35.60;;;11.80;99.90;;;;;;5030757;28;20429;-65
2024/02/17 11:13:02;;;;;;;53.60;33.60;;;11.80;99.90;;;;;;5029714;28;20425;-66
2024/02/17 11:15:29;;;;;;;48.57;34.30;;;11.80;99.90;;;;;;5031061;28;21237;-71
2024/02/17 11:18:01;;;;;;;43.77;31.23;;;11.80;99.90;;;;;;5030524;28;20433;-71
2024/02/17 11:20:27;;;;;;;42.73;31.70;;;11.80;99.90;;;;;;5029379;28;20494;-68
2024/02/17 11:22:57;;;;;;;49.63;32.30;;;11.80;99.90;;;;;;5029861;28;21144;-68
2024/02/17 11:25:30;;;;;;;45.30;31.50;;;11.80;99.90;;;;;;5031109;28;20448;-71
2024/02/17 11:27:58;;;;;;;47.30;32.50;;;11.70;99.90;;;;;;5028777;28;20478;-72
2024/02/17 11:30:24;;;;;;;44.30;31.33;;;11.70;99.90;;;;;;5029019;28;21225;-66
2024/02/17 11:33:00;;;;;;;46.97;32.77;;;11.80;99.90;;;;;;5030843;28;20519;-70
2024/02/17 11:35:30;;;;;;;42.93;30.77;;;11.80;99.90;;;;;;5029256;28;20428;-69
2024/02/17 11:37:56;;;;;;;50.33;32.60;;;11.80;99.90;;;;;;5030311;28;20830;-73
2024/02/17 11:40:25;;;;;;;49.43;32.80;;;11.80;99.90;;;;;;5029507;28;20449;-65
2024/02/17 11:42:54;;;;;;;44.80;32.40;;;11.80;99.90;;;;;;5029437;28;21149;-65
2024/02/17 11:45:21;;;;;;;50.93;32.70;;;11.80;99.90;;;;;;5030865;28;20436;-70
2024/02/17 11:47:47;;;;;;;46.57;31.30;;;11.80;99.90;;;;;;5026348;28;20452;-66
2024/02/17 11:50:13;;;;;;;47.33;33.53;;;11.80;99.90;;;;;;5029963;28;21044;-68
2024/02/17 11:52:40;;;;;;;51.33;33.17;;;11.80;99.90;;;;;;5028182;28;20570;-69
2024/02/17 11:55:08;;;;;;;47.70;33.20;;;11.80;99.90;;;;;;5030610;28;20188;-69
2024/02/17 11:57:36;;;;;;;47.90;31.27;;;11.80;99.90;;;;;;5030030;28;20992;-68
2024/02/17 12:00:22;;;;;;;46.97;32.07;;;11.80;99.90;;;;;;5035445;28;20432;-68
2024/02/17 12:02:47;;;;;;;47.67;31.63;;;11.80;99.90;;;;;;5019233;28;20440;-70
2024/02/17 12:05:15;;;;;;;48.57;34.23;;;11.90;99.90;;;;;;5029310;28;20433;-65
2024/02/17 12:07:41;;;;;;;45.43;33.37;;;11.80;99.90;;;;;;4995966;28;20185;-67
2024/02/17 12:10:11;;;;;;;53.37;34.03;;;11.80;99.90;;;;;;5034769;28;20405;-71
2024/02/17 12:12:39;;;;;;;53.57;32.20;;;11.90;99.90;;;;;;5034683;28;20189;-65
2024/02/17 12:15:11;;;;;;;47.43;33.60;;;11.90;99.90;;;;;;5034038;28;20459;-67
2024/02/17 12:17:43;;;;;;;49.53;33.60;;;11.90;99.90;;;;;;5032710;28;20941;-70
2024/02/17 12:20:17;;;;;;;45.40;31.67;;;11.80;99.90;;;;;;5026949;28;20498;-70
2024/02/17 12:22:49;;;;;;;46.57;34.17;;;11.80;99.90;;;;;;5032417;28;20436;-66
2024/02/17 12:25:17;;;;;;;46.97;33.70;;;11.80;99.90;;;;;;5020236;28;21215;-68
2024/02/17 12:27:46;;;;;;;47.63;32.80;;;11.80;99.90;;;;;;5033385;28;20452;-67
2024/02/17 12:30:17;;;;;;;46.83;33.20;;;11.70;99.90;;;;;;5033097;28;20420;-71